createdAt,value
2023-03-03T00:00:20.408Z,12.11
2023-03-03T00:02:47.721Z,12.14
2023-03-03T00:05:18.097Z,12.15
2023-03-03T00:07:45.576Z,12.16
2023-03-03T00:10:13.039Z,12.18
2023-03-03T00:12:48.454Z,12.19
2023-03-03T00:15:20.032Z,12.21
2023-03-03T00:17:50.495Z,12.23
2023-03-03T00:20:31.190Z,12.24
2023-03-03T00:23:06.196Z,12.26
2023-03-03T00:25:34.003Z,12.27
2023-03-03T00:28:23.618Z,12.28
2023-03-03T00:30:52.109Z,12.30
2023-03-03T00:33:54.118Z,12.33
2023-03-03T00:36:37.984Z,12.40
2023-03-03T00:39:20.929Z,12.48
2023-03-03T00:41:49.559Z,12.55
2023-03-03T00:44:39.094Z,12.57
2023-03-03T00:47:31.629Z,12.59
2023-03-03T00:50:05.643Z,12.60
2023-03-03T00:52:38.382Z,12.61
2023-03-03T00:55:06.164Z,12.62
2023-03-03T00:57:33.457Z,12.63
2023-03-03T01:00:00.687Z,12.63
2023-03-03T01:02:27.686Z,12.63
2023-03-03T01:04:56.958Z,12.64
2023-03-03T01:07:24.878Z,12.64
2023-03-03T01:09:51.772Z,12.63
2023-03-03T01:12:19.296Z,12.63
2023-03-03T01:14:48.659Z,12.63
2023-03-03T01:17:16.094Z,12.60
2023-03-03T01:19:44.851Z,12.56
2023-03-03T01:22:11.627Z,12.52
2023-03-03T01:24:38.948Z,12.49
2023-03-03T01:27:05.695Z,12.47
2023-03-03T01:29:36.462Z,12.46
2023-03-03T01:32:03.535Z,12.44
2023-03-03T01:34:30.469Z,12.44
2023-03-03T01:37:00.383Z,12.50
2023-03-03T01:39:27.352Z,12.55
2023-03-03T01:41:54.657Z,12.58
2023-03-03T01:44:21.472Z,12.61
2023-03-03T01:46:52.363Z,12.63
2023-03-03T01:49:23.708Z,12.60
2023-03-03T01:51:53.760Z,12.58
2023-03-03T01:54:29.888Z,12.58
2023-03-03T01:56:59.841Z,12.56
2023-03-03T01:59:29.016Z,12.56
2023-03-03T02:01:55.759Z,12.58
2023-03-03T02:04:25.865Z,12.61
2023-03-03T02:07:06.290Z,12.61
2023-03-03T02:09:39.523Z,12.63
2023-03-03T02:12:08.730Z,12.64
2023-03-03T02:14:35.734Z,12.63
2023-03-03T02:17:03.041Z,12.64
2023-03-03T02:19:51.584Z,12.66
2023-03-03T02:22:30.852Z,12.67
2023-03-03T02:25:00.331Z,12.69
2023-03-03T02:27:28.093Z,12.71
2023-03-03T02:29:55.561Z,12.74
2023-03-03T02:32:22.373Z,12.77
2023-03-03T02:34:51.590Z,12.83
2023-03-03T02:37:18.740Z,12.86
2023-03-03T02:39:46.116Z,12.86
2023-03-03T02:42:25.361Z,12.88
2023-03-03T02:44:54.389Z,12.91
2023-03-03T02:47:21.031Z,12.90
2023-03-03T02:49:47.812Z,12.91
2023-03-03T02:52:17.623Z,12.93
2023-03-03T02:54:45.576Z,12.94
2023-03-03T02:57:13.228Z,12.94
2023-03-03T02:59:39.959Z,12.93
2023-03-03T03:02:12.377Z,12.92
2023-03-03T03:04:39.616Z,12.92
2023-03-03T03:07:07.143Z,12.90
2023-03-03T03:09:35.683Z,12.87
2023-03-03T03:12:02.813Z,12.86
2023-03-03T03:14:33.960Z,12.85
2023-03-03T03:17:01.587Z,12.83
2023-03-03T03:19:29.037Z,12.84
2023-03-03T03:21:56.744Z,12.85
2023-03-03T03:24:23.745Z,12.86
2023-03-03T03:26:57.295Z,12.87
2023-03-03T03:29:24.445Z,12.87
2023-03-03T03:31:52.433Z,12.88
2023-03-03T03:34:19.197Z,12.91
2023-03-03T03:36:49.434Z,12.96
2023-03-03T03:39:36.148Z,13.03
2023-03-03T03:42:03.656Z,13.05
2023-03-03T03:44:31.372Z,13.06
2023-03-03T03:46:58.924Z,13.06
2023-03-03T03:49:26.750Z,13.05
2023-03-03T03:51:54.901Z,13.05
2023-03-03T03:54:23.109Z,13.04
2023-03-03T03:56:50.113Z,13.04
2023-03-03T03:59:16.792Z,13.04
2023-03-03T04:01:45.435Z,13.04
2023-03-03T04:04:12.609Z,13.03
2023-03-03T04:06:40.073Z,13.01
2023-03-03T04:09:08.416Z,12.99
2023-03-03T04:11:36.066Z,12.97
2023-03-03T04:14:04.902Z,12.96
2023-03-03T04:16:32.306Z,12.95
2023-03-03T04:18:59.103Z,12.96
2023-03-03T04:21:27.352Z,12.95
2023-03-03T04:23:55.691Z,12.97
2023-03-03T04:26:22.631Z,12.97
2023-03-03T04:28:49.719Z,12.98
2023-03-03T04:31:17.254Z,12.98
2023-03-03T04:33:44.128Z,13.00
2023-03-03T04:36:11.561Z,13.05
2023-03-03T04:38:38.593Z,13.10
2023-03-03T04:41:05.754Z,13.12
2023-03-03T04:43:34.387Z,13.13
2023-03-03T04:46:01.458Z,13.13
2023-03-03T04:48:29.050Z,13.13
2023-03-03T04:50:56.058Z,13.12
2023-03-03T04:53:24.595Z,13.12
2023-03-03T04:55:52.652Z,13.12
2023-03-03T04:58:20.549Z,13.14
2023-03-03T05:00:47.860Z,13.13
2023-03-03T05:03:18.816Z,13.12
2023-03-03T05:05:49.132Z,13.13
2023-03-03T05:08:16.898Z,13.14
2023-03-03T05:10:44.015Z,13.15
2023-03-03T05:13:16.653Z,13.16
2023-03-03T05:15:52.113Z,13.16
2023-03-03T05:18:19.636Z,13.17
2023-03-03T05:20:49.341Z,13.17
2023-03-03T05:23:17.569Z,13.17
2023-03-03T05:25:45.128Z,13.17
2023-03-03T05:28:12.282Z,13.17
2023-03-03T05:30:39.274Z,13.19
2023-03-03T05:33:06.026Z,13.25
2023-03-03T05:35:33.971Z,13.32
2023-03-03T05:38:05.320Z,13.35
2023-03-03T05:40:32.400Z,13.36
2023-03-03T05:42:59.461Z,13.38
2023-03-03T05:45:27.576Z,13.39
2023-03-03T05:47:54.568Z,13.41
2023-03-03T05:50:21.982Z,13.42
2023-03-03T05:52:49.978Z,13.42
2023-03-03T05:55:17.928Z,13.43
2023-03-03T05:57:45.662Z,13.46
2023-03-03T06:00:15.016Z,13.48
2023-03-03T06:02:43.623Z,13.50
2023-03-03T06:05:11.281Z,13.52
2023-03-03T06:07:39.468Z,13.55
2023-03-03T06:10:06.960Z,13.56
2023-03-03T06:12:40.616Z,13.58
2023-03-03T06:15:08.687Z,13.60
2023-03-03T06:18:12.688Z,13.63
2023-03-03T06:20:40.500Z,13.65
2023-03-03T06:23:07.416Z,13.68
2023-03-03T06:25:35.517Z,13.70
2023-03-03T06:28:03.355Z,13.70
2023-03-03T06:30:32.389Z,13.72
2023-03-03T06:32:59.345Z,13.72
2023-03-03T06:35:26.530Z,13.72
2023-03-03T06:37:53.604Z,13.72
2023-03-03T06:40:20.515Z,13.74
2023-03-03T06:42:47.956Z,13.74
2023-03-03T06:45:15.873Z,13.75
2023-03-03T06:47:42.635Z,13.75
2023-03-03T06:50:11.738Z,13.77
2023-03-03T06:52:38.647Z,13.79
2023-03-03T06:55:22.510Z,13.81
2023-03-03T06:57:55.218Z,13.81
2023-03-03T07:00:25.846Z,13.82
2023-03-03T07:03:01.738Z,13.84
2023-03-03T07:05:32.474Z,13.87
2023-03-03T07:08:00.381Z,13.89
2023-03-03T07:10:28.655Z,13.94
2023-03-03T07:13:06.564Z,13.97
2023-03-03T07:15:34.879Z,13.99
2023-03-03T07:18:02.713Z,14.01
2023-03-03T07:20:33.270Z,14.04
2023-03-03T07:23:00.211Z,14.06
2023-03-03T07:25:34.820Z,14.08
2023-03-03T07:28:20.973Z,14.08
2023-03-03T07:30:48.017Z,14.12
2023-03-03T07:33:30.858Z,14.15
2023-03-03T07:35:58.634Z,14.13
2023-03-03T07:38:30.614Z,14.16
2023-03-03T07:40:58.852Z,14.18
2023-03-03T07:43:38.990Z,14.19
2023-03-03T07:46:09.442Z,14.23
2023-03-03T07:48:39.504Z,14.28
2023-03-03T07:51:32.573Z,14.35
2023-03-03T07:54:24.639Z,14.41
2023-03-03T07:56:51.483Z,14.46
2023-03-03T07:59:27.139Z,14.49
2023-03-03T08:01:55.874Z,14.53
2023-03-03T08:04:26.906Z,14.57
2023-03-03T08:06:54.241Z,14.67
2023-03-03T08:09:37.468Z,14.71
2023-03-03T08:12:08.934Z,14.74
2023-03-03T08:14:37.377Z,14.78
2023-03-03T08:17:27.690Z,14.85
2023-03-03T08:19:54.477Z,14.92
2023-03-03T08:22:31.344Z,14.96
2023-03-03T08:24:58.065Z,15.01
2023-03-03T08:27:24.635Z,15.04
2023-03-03T08:29:51.237Z,15.06
2023-03-03T08:32:18.073Z,15.08
2023-03-03T08:34:45.046Z,15.12
2023-03-03T08:37:15.881Z,15.20
2023-03-03T08:39:43.527Z,15.27
2023-03-03T08:42:10.186Z,15.32
2023-03-03T08:44:37.598Z,15.37
2023-03-03T08:47:05.193Z,15.30
2023-03-03T08:49:34.922Z,15.22
2023-03-03T08:52:01.617Z,15.22
2023-03-03T08:54:28.578Z,15.23
2023-03-03T08:56:55.662Z,15.25
2023-03-03T08:59:22.550Z,15.26
2023-03-03T09:01:49.464Z,15.26
2023-03-03T09:04:17.397Z,15.26
2023-03-03T09:06:45.111Z,15.26
2023-03-03T09:09:11.916Z,15.22
2023-03-03T09:11:44.467Z,15.10
2023-03-03T09:14:13.347Z,15.10
2023-03-03T09:18:42.307Z,13.92
2023-03-03T09:21:36.706Z,15.07
2023-03-03T09:24:05.555Z,15.17
2023-03-03T09:26:43.501Z,15.17
2023-03-03T09:29:11.550Z,15.19
2023-03-03T09:31:53.468Z,15.25
2023-03-03T09:34:41.275Z,15.31
2023-03-03T09:37:22.099Z,15.32
2023-03-03T09:39:52.397Z,15.32
2023-03-03T09:43:04.273Z,15.36
2023-03-03T09:45:48.672Z,15.41
2023-03-03T09:48:33.722Z,15.44
2023-03-03T09:51:32.369Z,15.39
2023-03-03T09:54:16.463Z,15.41
2023-03-03T09:56:49.375Z,15.48
2023-03-03T09:59:42.391Z,15.56
2023-03-03T10:02:40.298Z,15.66
2023-03-03T10:05:30.833Z,15.78
2023-03-03T10:08:12.864Z,15.90
2023-03-03T10:10:49.100Z,16.00
2023-03-03T10:13:49.806Z,16.03
2023-03-03T10:16:38.311Z,16.05
2023-03-03T10:19:15.536Z,16.09
2023-03-03T10:21:52.108Z,16.25
2023-03-03T10:24:30.724Z,16.43
2023-03-03T10:27:12.494Z,16.57
2023-03-03T10:29:42.059Z,16.71
2023-03-03T10:32:28.764Z,16.81
2023-03-03T10:35:15.652Z,16.96
2023-03-03T10:37:47.536Z,17.07
2023-03-03T10:40:30.197Z,17.13
2023-03-03T10:43:07.704Z,17.24
2023-03-03T10:45:39.798Z,17.35
2023-03-03T10:48:23.316Z,17.43
2023-03-03T10:50:51.761Z,17.51
2023-03-03T10:53:33.049Z,17.54
2023-03-03T10:56:30.276Z,17.57
2023-03-03T10:59:31.558Z,17.49
2023-03-03T11:02:03.114Z,17.48
2023-03-03T11:05:00.629Z,17.50
2023-03-03T11:07:57.811Z,17.60
2023-03-03T11:10:49.044Z,17.67
2023-03-03T11:13:31.089Z,17.66
2023-03-03T11:15:59.869Z,17.62
2023-03-03T11:19:12.562Z,17.62
2023-03-03T11:21:48.628Z,17.65
2023-03-03T11:25:02.239Z,17.57
2023-03-03T11:28:07.364Z,17.44
2023-03-03T11:30:59.968Z,17.45
2023-03-03T11:34:06.715Z,17.44
2023-03-03T11:36:42.734Z,17.44
2023-03-03T11:39:16.644Z,17.45
2023-03-03T11:42:18.856Z,17.49
2023-03-03T11:45:05.845Z,17.57
2023-03-03T11:47:39.554Z,17.59
2023-03-03T11:50:21.733Z,17.63
2023-03-03T11:53:00.814Z,17.66
2023-03-03T11:55:33.440Z,17.70
2023-03-03T11:58:07.524Z,17.73
2023-03-03T12:00:45.320Z,17.73
2023-03-03T12:03:35.916Z,17.68
2023-03-03T12:06:41.923Z,17.59
2023-03-03T12:09:27.352Z,17.49
2023-03-03T12:12:00.990Z,17.34
2023-03-03T12:14:43.921Z,17.20
2023-03-03T12:17:46.276Z,17.04
2023-03-03T12:20:26.831Z,16.95
2023-03-03T12:23:07.660Z,16.79
2023-03-03T12:26:08.466Z,16.58
2023-03-03T12:29:17.948Z,16.46
2023-03-03T12:31:51.386Z,16.44
2023-03-03T12:34:24.957Z,16.44
2023-03-03T12:37:12.734Z,16.43
2023-03-03T12:39:50.716Z,16.41
2023-03-03T12:42:18.727Z,16.42
2023-03-03T12:44:59.464Z,16.45
2023-03-03T12:47:40.957Z,16.48
2023-03-03T12:50:44.264Z,16.50
2023-03-03T12:53:22.061Z,16.49
2023-03-03T12:55:55.557Z,16.41
2023-03-03T12:58:36.846Z,16.40
2023-03-03T13:01:30.369Z,16.40
2023-03-03T13:04:05.335Z,16.35
2023-03-03T13:06:42.564Z,16.34
2023-03-03T13:09:24.256Z,16.34
2023-03-03T13:12:25.276Z,16.31
2023-03-03T13:15:10.388Z,16.24
2023-03-03T13:17:41.208Z,16.14
2023-03-03T13:20:25.840Z,16.10
2023-03-03T13:23:16.145Z,16.05
2023-03-03T13:25:57.709Z,16.01
2023-03-03T13:28:34.110Z,15.92
2023-03-03T13:31:13.086Z,15.83
2023-03-03T13:33:41.106Z,15.74
2023-03-03T13:36:09.837Z,15.70
2023-03-03T13:38:42.493Z,15.63
2023-03-03T13:41:23.876Z,15.61
2023-03-03T13:44:06.078Z,15.61
2023-03-03T13:46:41.939Z,15.61
2023-03-03T13:49:28.941Z,15.65
2023-03-03T13:52:07.181Z,15.70
2023-03-03T13:54:55.763Z,15.68
2023-03-03T13:58:11.346Z,15.64
2023-03-03T14:00:49.902Z,15.55
2023-03-03T14:03:50.262Z,15.54
2023-03-03T14:06:20.379Z,15.66
2023-03-03T14:09:56.054Z,15.78
2023-03-03T14:13:02.702Z,15.67
2023-03-03T14:15:33.169Z,15.67
2023-03-03T14:18:06.259Z,15.67
2023-03-03T14:20:53.871Z,15.63
2023-03-03T14:23:32.604Z,15.62
2023-03-03T14:26:03.640Z,15.68
2023-03-03T14:28:42.288Z,15.66
2023-03-03T14:31:24.414Z,15.56
2023-03-03T14:34:13.037Z,15.66
2023-03-03T14:36:43.025Z,15.69
2023-03-03T14:39:34.117Z,15.73
2023-03-03T14:42:14.315Z,15.77
2023-03-03T14:44:46.467Z,15.75
2023-03-03T14:47:22.003Z,15.73
2023-03-03T14:49:51.599Z,15.68
2023-03-03T14:52:22.253Z,15.66
2023-03-03T14:54:52.384Z,15.64
2023-03-03T14:57:37.637Z,15.60
2023-03-03T15:00:14.852Z,15.57
2023-03-03T15:02:51.813Z,15.53
2023-03-03T15:05:24.944Z,15.46
2023-03-03T15:07:59.334Z,15.43
2023-03-03T15:10:36.490Z,15.43
2023-03-03T15:13:20.264Z,15.42
2023-03-03T15:16:00.361Z,15.39
2023-03-03T15:18:35.678Z,15.34
2023-03-03T15:21:11.624Z,15.33
2023-03-03T15:24:17.869Z,15.34
2023-03-03T15:26:49.093Z,15.40
2023-03-03T15:29:33.355Z,15.44
2023-03-03T15:32:06.157Z,15.48
2023-03-03T15:34:51.565Z,15.44
2023-03-03T15:37:39.481Z,15.37
2023-03-03T15:40:21.862Z,15.37
2023-03-03T15:43:06.441Z,15.33
2023-03-03T15:45:46.211Z,15.34
2023-03-03T15:48:31.688Z,15.36
2023-03-03T15:51:05.678Z,15.37
2023-03-03T15:53:37.698Z,15.38
2023-03-03T15:56:16.360Z,15.34
2023-03-03T15:58:54.452Z,15.33
2023-03-03T16:01:42.454Z,15.33
2023-03-03T16:04:16.470Z,15.33
2023-03-03T16:07:06.172Z,15.36
2023-03-03T16:09:57.760Z,15.35
2023-03-03T16:12:42.439Z,15.33
2023-03-03T16:15:30.363Z,15.36
2023-03-03T16:18:12.248Z,15.35
2023-03-03T16:20:50.642Z,15.33
2023-03-03T16:23:37.976Z,15.32
2023-03-03T16:26:19.482Z,15.31
2023-03-03T16:29:13.163Z,15.29
2023-03-03T16:31:45.904Z,15.27
2023-03-03T16:34:16.471Z,15.23
2023-03-03T16:37:24.556Z,15.20
2023-03-03T16:40:21.191Z,15.18
2023-03-03T16:43:44.575Z,15.14
2023-03-03T16:46:42.566Z,15.06
2023-03-03T16:49:52.167Z,14.95
2023-03-03T16:53:09.564Z,14.85
2023-03-03T16:56:10.328Z,14.79
2023-03-03T16:59:09.627Z,14.75
2023-03-03T17:02:44.569Z,14.73
2023-03-03T17:05:36.324Z,14.67
2023-03-03T17:09:03.912Z,14.60
2023-03-03T17:12:22.929Z,14.55
2023-03-03T17:15:32.629Z,14.54
2023-03-03T17:18:34.343Z,14.54
2023-03-03T17:21:33.986Z,14.54
2023-03-03T17:24:36.639Z,14.52
2023-03-03T17:27:35.367Z,14.51
2023-03-03T17:30:45.531Z,14.49
2023-03-03T17:33:50.211Z,14.39
2023-03-03T17:47:30.172Z,14.03
2023-03-03T17:50:34.348Z,13.98
2023-03-03T17:53:23.398Z,13.98
2023-03-03T17:56:05.314Z,13.92
2023-03-03T17:58:32.603Z,13.90
2023-03-03T18:01:30.478Z,13.87
2023-03-03T18:04:19.026Z,13.85
2023-03-03T18:07:08.269Z,13.82
2023-03-03T18:09:49.111Z,13.81
2023-03-03T18:12:31.651Z,13.79
2023-03-03T18:15:23.676Z,13.75
2023-03-03T18:18:09.692Z,13.65
2023-03-03T18:20:56.889Z,13.56
2023-03-03T18:23:40.935Z,13.50
2023-03-03T18:26:34.652Z,13.45
2023-03-03T18:29:26.511Z,13.39
2023-03-03T18:31:53.596Z,13.29
2023-03-03T18:34:20.702Z,13.21
2023-03-03T18:36:59.335Z,13.14
2023-03-03T18:39:38.350Z,13.07
2023-03-03T18:42:12.046Z,13.00
2023-03-03T18:44:39.987Z,12.95
2023-03-03T18:47:07.946Z,12.91
2023-03-03T18:49:57.121Z,12.89
2023-03-03T18:52:25.200Z,12.87
2023-03-03T18:55:09.336Z,12.81
2023-03-03T18:57:36.899Z,12.76
2023-03-03T19:00:16.557Z,12.71
2023-03-03T19:02:52.069Z,12.67
2023-03-03T19:05:46.491Z,12.68
2023-03-03T19:08:25.504Z,12.71
2023-03-03T19:10:58.962Z,12.71
2023-03-03T19:13:31.897Z,12.71
2023-03-03T19:16:06.289Z,12.70
2023-03-03T19:18:35.325Z,12.70
2023-03-03T19:21:31.771Z,12.67
2023-03-03T19:24:00.172Z,12.66
2023-03-03T19:26:30.379Z,12.64
2023-03-03T19:29:20.554Z,12.64
2023-03-03T19:31:54.060Z,12.62
2023-03-03T19:34:41.065Z,12.59
2023-03-03T19:37:11.049Z,12.58
2023-03-03T19:39:54.108Z,12.52
2023-03-03T19:42:26.168Z,12.51
2023-03-03T19:45:32.578Z,12.53
2023-03-03T19:48:06.293Z,12.51
2023-03-03T19:50:55.269Z,12.47
2023-03-03T19:53:37.931Z,12.49
2023-03-03T19:56:38.968Z,12.52
2023-03-03T19:59:24.456Z,12.55
2023-03-03T20:02:02.038Z,12.55
2023-03-03T20:04:35.029Z,12.54
2023-03-03T20:07:34.343Z,12.55
2023-03-03T20:10:07.584Z,12.51
2023-03-03T20:12:52.812Z,12.54
2023-03-03T20:15:37.708Z,12.58
2023-03-03T20:18:34.530Z,12.59
2023-03-03T20:21:19.717Z,12.59
2023-03-03T20:24:05.103Z,12.58
2023-03-03T20:26:44.650Z,12.58
2023-03-03T20:29:34.791Z,12.59
2023-03-03T20:32:07.856Z,12.59
2023-03-03T20:34:38.728Z,12.57
2023-03-03T20:37:20.176Z,12.56
2023-03-03T20:40:12.496Z,12.53
2023-03-03T20:43:05.883Z,12.46
2023-03-03T20:46:02.120Z,12.42
2023-03-03T20:48:38.336Z,12.36
2023-03-03T20:51:29.183Z,12.28
2023-03-03T20:54:27.036Z,12.26
2023-03-03T20:56:59.705Z,12.24
2023-03-03T20:59:34.460Z,12.21
2023-03-03T21:02:12.064Z,12.22
2023-03-03T21:04:40.162Z,12.26
2023-03-03T21:07:07.052Z,12.29
2023-03-03T21:09:38.391Z,12.29
2023-03-03T21:12:29.275Z,12.25
2023-03-03T21:15:06.967Z,12.13
2023-03-03T21:17:34.149Z,12.06
2023-03-03T21:20:27.640Z,12.04
2023-03-03T21:23:03.205Z,11.98
2023-03-03T21:25:52.424Z,11.91
2023-03-03T21:36:37.358Z,10.68
2023-03-03T21:39:27.899Z,11.83
2023-03-03T21:42:02.029Z,12.03
2023-03-03T21:44:34.333Z,12.07
2023-03-03T21:47:03.491Z,12.05
2023-03-03T21:49:52.178Z,12.06
2023-03-03T21:52:21.453Z,12.09
2023-03-03T21:54:50.835Z,12.13
2023-03-03T21:57:19.548Z,12.17
2023-03-03T21:59:47.847Z,12.18
2023-03-03T22:02:16.260Z,12.21
2023-03-03T22:04:44.808Z,12.20
2023-03-03T22:07:13.184Z,12.14
2023-03-03T22:09:42.569Z,12.10
2023-03-03T22:12:12.180Z,12.06
2023-03-03T22:14:42.711Z,12.04
2023-03-03T22:17:11.795Z,12.03
2023-03-03T22:19:40.292Z,12.03
2023-03-03T22:22:09.427Z,12.00
2023-03-03T22:24:37.837Z,11.99
2023-03-03T22:27:07.840Z,12.04
2023-03-03T22:29:37.027Z,12.08
2023-03-03T22:32:05.530Z,12.10
2023-03-03T22:34:33.945Z,12.07
2023-03-03T22:37:02.094Z,12.04
2023-03-03T22:39:30.575Z,12.04
2023-03-03T22:41:58.853Z,12.03
2023-03-03T22:44:26.998Z,11.97
2023-03-03T22:46:55.231Z,11.92
2023-03-03T22:49:23.382Z,11.92
2023-03-03T22:51:51.514Z,11.92
2023-03-03T22:54:20.969Z,11.91
2023-03-03T22:56:49.041Z,11.89
2023-03-03T22:59:17.716Z,11.88
2023-03-03T23:01:48.029Z,11.87
2023-03-03T23:04:16.939Z,11.86
2023-03-03T23:06:47.562Z,11.90
2023-03-03T23:09:20.557Z,11.94
2023-03-03T23:11:50.152Z,11.92
2023-03-03T23:14:23.644Z,11.84
2023-03-03T23:16:58.509Z,11.78
2023-03-03T23:19:35.482Z,11.75
2023-03-03T23:22:10.144Z,11.73
2023-03-03T23:24:44.173Z,11.70
2023-03-03T23:27:20.792Z,11.67
2023-03-03T23:29:49.958Z,11.65
2023-03-03T23:32:19.175Z,11.68
2023-03-03T23:34:49.964Z,11.73
2023-03-03T23:37:23.121Z,11.76
2023-03-03T23:39:51.406Z,11.77
2023-03-03T23:42:19.464Z,11.81
2023-03-03T23:44:47.739Z,11.81
2023-03-03T23:47:17.359Z,11.79
2023-03-03T23:49:46.324Z,11.76
2023-03-03T23:52:14.546Z,11.74
2023-03-03T23:54:45.255Z,11.70
2023-03-03T23:57:13.762Z,11.66
2023-03-03T23:59:42.033Z,11.65
